Time;durP1;ratioP1;P1;durP2;ratioP2;P2;SDS_P1;SDS_P2;PMS_P1;PMS_P2;Temp;Humidity;BMP_temperature;BMP_pressure;BME280_temperature;BME280_humidity;BME280_pressure;Samples;Min_cycle;Max_cycle;Signal;HPM_P1;HPM_P2
2022/03/19 00:00:59;;;;;;;10.83;5.67;;;5.00;99.90;;;;;;5017368;28;20214;-83
2022/03/19 00:03:26;;;;;;;18.20;5.87;;;5.00;99.90;;;;;;5017604;28;20171;-84
2022/03/19 00:05:52;;;;;;;11.23;5.90;;;5.00;99.90;;;;;;5017628;28;20199;-83
2022/03/19 00:08:17;;;;;;;14.57;6.33;;;5.00;99.90;;;;;;5017829;28;20509;-84
2022/03/19 00:10:44;;;;;;;18.00;6.17;;;5.00;99.90;;;;;;5017462;28;20229;-84
2022/03/19 00:13:10;;;;;;;16.77;6.87;;;4.90;99.90;;;;;;5017358;28;20599;-83
2022/03/19 00:15:37;;;;;;;14.53;6.43;;;4.80;99.90;;;;;;5017073;28;20175;-84
2022/03/19 00:18:06;;;;;;;15.10;6.70;;;4.70;99.90;;;;;;5017407;28;20179;-83
2022/03/19 00:20:33;;;;;;;21.33;7.30;;;4.60;99.90;;;;;;5017295;28;20215;-84
2022/03/19 00:22:59;;;;;;;16.13;7.20;;;4.60;99.90;;;;;;5017527;28;20194;-84
2022/03/19 00:25:25;;;;;;;17.37;6.63;;;4.60;99.90;;;;;;5017357;28;20179;-83
2022/03/19 00:27:51;;;;;;;19.20;6.40;;;4.60;99.90;;;;;;5017074;28;20230;-84
2022/03/19 00:30:17;;;;;;;14.93;5.67;;;4.60;99.90;;;;;;5016818;28;20187;-85
2022/03/19 00:32:43;;;;;;;19.73;6.90;;;4.60;99.90;;;;;;5017201;28;20239;-84
2022/03/19 00:35:09;;;;;;;14.53;6.07;;;4.40;99.90;;;;;;5016160;28;20190;-84
2022/03/19 00:37:46;;;;;;;14.70;5.93;;;4.40;99.90;;;;;;5033101;28;20178;-84
2022/03/19 00:40:13;;;;;;;21.37;6.60;;;4.40;99.90;;;;;;5036611;28;20288;-84
2022/03/19 00:42:39;;;;;;;13.00;5.67;;;4.30;99.90;;;;;;5035280;28;20185;-84
2022/03/19 00:45:05;;;;;;;15.17;5.80;;;4.30;99.90;;;;;;5036388;28;20174;-84
2022/03/19 00:47:31;;;;;;;16.07;5.73;;;4.20;99.90;;;;;;5035899;28;20174;-83
2022/03/19 00:49:57;;;;;;;15.00;6.23;;;4.10;99.90;;;;;;5036610;28;20672;-82
2022/03/19 00:52:22;;;;;;;19.23;5.93;;;4.10;99.90;;;;;;5036718;28;20178;-82
2022/03/19 00:54:48;;;;;;;15.47;6.07;;;4.00;99.90;;;;;;5036604;28;20163;-82
2022/03/19 00:57:14;;;;;;;19.40;6.00;;;4.00;99.90;;;;;;5036455;28;20187;-83
2022/03/19 00:59:39;;;;;;;21.03;6.73;;;4.00;99.90;;;;;;5036261;28;20645;-83
2022/03/19 01:02:05;;;;;;;14.17;6.03;;;4.00;99.90;;;;;;5036394;28;20229;-82
2022/03/19 01:04:31;;;;;;;20.00;6.27;;;4.00;99.90;;;;;;5036547;28;20171;-82
2022/03/19 01:06:56;;;;;;;16.10;6.30;;;4.00;99.90;;;;;;5022807;28;20502;-83
2022/03/19 01:09:22;;;;;;;18.10;6.00;;;4.10;99.90;;;;;;5016324;28;20234;-84
2022/03/19 01:11:48;;;;;;;17.83;6.23;;;4.10;99.90;;;;;;5016384;28;20282;-84
2022/03/19 01:14:14;;;;;;;17.17;6.43;;;4.10;99.90;;;;;;5016518;28;20163;-83
2022/03/19 01:16:39;;;;;;;17.60;6.47;;;4.10;99.90;;;;;;5016109;28;20178;-83
2022/03/19 01:19:05;;;;;;;18.33;5.90;;;4.10;99.90;;;;;;5016003;28;20206;-83
2022/03/19 01:21:31;;;;;;;16.00;5.87;;;4.10;99.90;;;;;;5016252;28;20211;-84
2022/03/19 01:23:57;;;;;;;19.37;6.50;;;4.10;99.90;;;;;;5016235;28;20168;-83
2022/03/19 01:26:24;;;;;;;14.40;5.70;;;4.10;99.90;;;;;;5015922;28;20179;-83
2022/03/19 01:28:50;;;;;;;19.57;6.87;;;4.00;99.90;;;;;;5016417;28;20225;-81
2022/03/19 01:31:15;;;;;;;18.57;6.17;;;3.90;99.90;;;;;;5015862;28;20179;-81
2022/03/19 01:33:41;;;;;;;17.50;6.13;;;3.90;99.90;;;;;;5016210;28;20178;-83
2022/03/19 01:36:07;;;;;;;12.93;5.80;;;3.90;99.90;;;;;;5015822;28;20182;-83
2022/03/19 01:38:32;;;;;;;16.67;6.23;;;3.80;99.90;;;;;;5015844;28;20211;-81
2022/03/19 01:41:01;;;;;;;17.10;7.17;;;3.80;99.90;;;;;;5015556;28;20645;-83
2022/03/19 01:43:27;;;;;;;23.53;6.77;;;3.70;99.90;;;;;;5015788;28;20203;-84
2022/03/19 01:45:53;;;;;;;15.70;6.20;;;3.60;99.90;;;;;;5015486;28;20176;-83
2022/03/19 01:48:19;;;;;;;16.47;5.77;;;3.60;99.90;;;;;;5015735;28;20226;-83
2022/03/19 01:50:44;;;;;;;16.27;6.00;;;3.60;99.90;;;;;;5014489;28;20183;-83
2022/03/19 01:53:10;;;;;;;12.13;5.57;;;3.50;99.90;;;;;;5014238;28;20273;-84
2022/03/19 01:55:36;;;;;;;15.57;5.80;;;3.50;99.90;;;;;;5014271;28;20183;-83
2022/03/19 01:58:02;;;;;;;15.67;6.43;;;3.50;99.90;;;;;;5015312;28;20176;-83
2022/03/19 02:00:28;;;;;;;22.20;6.47;;;3.50;99.90;;;;;;5015077;28;20248;-83
2022/03/19 02:02:54;;;;;;;22.83;6.93;;;3.50;99.90;;;;;;5014189;28;20460;-83
2022/03/19 02:05:21;;;;;;;14.13;5.30;;;3.50;99.90;;;;;;5015515;28;20237;-84
2022/03/19 02:07:48;;;;;;;16.13;6.00;;;3.40;99.90;;;;;;5015314;28;20215;-84
2022/03/19 02:10:16;;;;;;;16.93;6.53;;;3.40;99.90;;;;;;5014995;28;20559;-84
2022/03/19 02:12:43;;;;;;;24.57;6.43;;;3.40;99.90;;;;;;5015450;28;20175;-84
2022/03/19 02:15:10;;;;;;;16.80;5.70;;;3.30;99.90;;;;;;5015006;28;20211;-84
2022/03/19 02:17:36;;;;;;;16.27;6.30;;;3.30;99.90;;;;;;5015259;28;20594;-84
2022/03/19 02:20:04;;;;;;;24.27;6.87;;;3.20;99.90;;;;;;5015384;28;20222;-83
2022/03/19 02:22:30;;;;;;;18.17;6.47;;;3.20;99.90;;;;;;5014841;28;20168;-84
2022/03/19 02:27:42;;;;;;;17.20;6.17;;;3.10;99.90;;;;;;5015459;28;20508;-84
2022/03/19 02:30:11;;;;;;;16.27;6.10;;;3.00;99.90;;;;;;5013424;28;20186;-83
2022/03/19 02:32:39;;;;;;;22.63;5.80;;;3.00;99.90;;;;;;5014895;28;20174;-83
2022/03/19 02:35:05;;;;;;;11.63;5.53;;;3.00;99.90;;;;;;5014943;28;20171;-84
2022/03/19 02:37:39;;;;;;;16.20;5.77;;;3.00;99.90;;;;;;5013526;28;20186;-84
2022/03/19 02:40:07;;;;;;;14.80;5.27;;;2.90;99.90;;;;;;5014902;28;20294;-83
2022/03/19 02:42:33;;;;;;;16.63;6.50;;;2.90;99.90;;;;;;5014671;28;20614;-83
2022/03/19 02:44:59;;;;;;;15.93;6.50;;;2.80;99.90;;;;;;5014902;28;20209;-83
2022/03/19 02:47:24;;;;;;;15.53;5.93;;;2.80;99.90;;;;;;5014482;28;20648;-82
2022/03/19 02:49:50;;;;;;;15.37;5.87;;;2.80;99.90;;;;;;5014731;28;20641;-84
2022/03/19 02:52:16;;;;;;;15.10;5.43;;;2.90;99.90;;;;;;5014568;28;20221;-84
2022/03/19 02:54:41;;;;;;;13.40;5.90;;;2.80;99.90;;;;;;5014846;28;20191;-84
2022/03/19 02:57:07;;;;;;;16.73;6.13;;;2.90;99.90;;;;;;5013293;28;20210;-83
2022/03/19 02:59:34;;;;;;;15.83;5.80;;;2.80;99.90;;;;;;5014716;28;20207;-83
2022/03/19 03:02:04;;;;;;;14.87;5.63;;;2.80;99.90;;;;;;5013041;28;20569;-83
2022/03/19 03:04:31;;;;;;;18.60;6.20;;;2.80;99.90;;;;;;5014448;28;20258;-83
2022/03/19 03:06:59;;;;;;;17.43;6.20;;;2.70;99.90;;;;;;5014611;28;20203;-84
2022/03/19 03:09:26;;;;;;;18.63;5.70;;;2.70;99.90;;;;;;5015178;28;20238;-83
2022/03/19 03:11:52;;;;;;;18.73;5.93;;;2.60;99.90;;;;;;5018573;28;20178;-81
2022/03/19 03:14:20;;;;;;;18.67;5.67;;;2.60;99.90;;;;;;5018966;28;20163;-83
2022/03/19 03:16:47;;;;;;;15.03;5.70;;;2.50;99.90;;;;;;5018296;28;20175;-83
2022/03/19 03:19:13;;;;;;;15.37;5.77;;;2.60;99.90;;;;;;5018331;28;20202;-84
2022/03/19 03:21:39;;;;;;;19.67;5.17;;;2.50;99.90;;;;;;5018482;28;20182;-84
2022/03/19 03:24:06;;;;;;;14.13;5.97;;;2.50;99.90;;;;;;5018516;28;20309;-84
2022/03/19 03:26:32;;;;;;;14.07;5.47;;;2.50;99.90;;;;;;5017149;28;20491;-83
2022/03/19 03:28:58;;;;;;;14.47;5.13;;;2.50;99.90;;;;;;5018532;28;20186;-84
2022/03/19 03:31:26;;;;;;;13.97;4.73;;;2.50;99.90;;;;;;5017848;28;20177;-83
2022/03/19 03:33:52;;;;;;;11.77;4.60;;;2.50;99.90;;;;;;5018362;28;20199;-84
2022/03/19 03:36:18;;;;;;;8.93;4.50;;;2.40;99.90;;;;;;5018252;28;20187;-84
2022/03/19 03:38:44;;;;;;;14.17;4.97;;;2.40;99.90;;;;;;5017957;28;20176;-83
2022/03/19 03:41:10;;;;;;;13.57;4.60;;;2.40;99.90;;;;;;5018238;28;20232;-84
2022/03/19 03:43:36;;;;;;;14.73;4.80;;;2.40;99.90;;;;;;5016738;28;20621;-83
2022/03/19 03:46:02;;;;;;;8.63;4.40;;;2.40;99.90;;;;;;5017717;28;20599;-83
2022/03/19 03:48:27;;;;;;;12.03;5.07;;;2.40;99.90;;;;;;5017979;28;20664;-79
2022/03/19 03:50:56;;;;;;;17.87;5.57;;;2.40;99.90;;;;;;5018066;28;20182;-83
2022/03/19 03:53:25;;;;;;;12.33;4.43;;;2.40;99.90;;;;;;5018206;28;20196;-83
2022/03/19 03:55:51;;;;;;;11.93;4.47;;;2.50;99.90;;;;;;5017891;28;20696;-83
2022/03/19 03:58:17;;;;;;;11.73;4.80;;;2.40;99.90;;;;;;5017519;28;20194;-82
2022/03/19 04:00:43;;;;;;;14.13;5.00;;;2.30;99.90;;;;;;5016259;28;20211;-84
2022/03/19 04:03:09;;;;;;;11.37;4.70;;;2.20;99.90;;;;;;5017789;28;20198;-83
2022/03/19 04:05:35;;;;;;;11.73;4.40;;;2.20;99.90;;;;;;5017967;28;20163;-81
2022/03/19 04:08:03;;;;;;;11.83;4.60;;;2.10;99.90;;;;;;5017499;28;20631;-83
2022/03/19 04:10:30;;;;;;;11.67;4.33;;;2.10;99.90;;;;;;5017479;28;20249;-84
2022/03/19 04:12:56;;;;;;;8.83;3.63;;;2.10;99.90;;;;;;5017464;28;20280;-84
2022/03/19 04:15:21;;;;;;;9.20;4.00;;;2.20;99.90;;;;;;5017474;28;20314;-81
2022/03/19 04:17:47;;;;;;;13.07;4.37;;;2.10;99.90;;;;;;5016216;28;20625;-83
2022/03/19 04:20:13;;;;;;;9.03;3.87;;;2.00;99.90;;;;;;5015873;28;20248;-84
2022/03/19 04:22:44;;;;;;;16.43;5.13;;;2.00;99.90;;;;;;5016305;28;20178;-83
2022/03/19 04:25:12;;;;;;;8.67;3.87;;;1.90;99.90;;;;;;5017653;28;20189;-83
2022/03/19 04:27:39;;;;;;;9.30;4.00;;;1.90;99.90;;;;;;5017014;28;20203;-82
2022/03/19 04:30:06;;;;;;;11.87;4.20;;;1.90;99.90;;;;;;5017064;28;20270;-83
2022/03/19 04:32:32;;;;;;;9.37;3.57;;;1.90;99.90;;;;;;5016882;28;20185;-80
2022/03/19 04:34:57;;;;;;;14.07;3.77;;;1.90;99.90;;;;;;5017492;28;20176;-84
2022/03/19 04:37:23;;;;;;;10.57;3.93;;;1.90;99.90;;;;;;5017175;28;20210;-84
2022/03/19 04:39:49;;;;;;;6.90;3.57;;;1.80;99.90;;;;;;5016942;28;20259;-83
2022/03/19 04:42:14;;;;;;;8.47;3.87;;;1.70;99.90;;;;;;5016816;28;20186;-83
2022/03/19 04:44:41;;;;;;;9.83;3.73;;;1.70;99.90;;;;;;5016948;28;20175;-83
2022/03/19 04:47:07;;;;;;;8.00;3.60;;;1.70;99.90;;;;;;5016960;28;20187;-84
2022/03/19 04:49:32;;;;;;;8.23;3.53;;;1.80;99.90;;;;;;5015750;28;20181;-84
2022/03/19 04:51:58;;;;;;;6.70;3.40;;;1.80;99.90;;;;;;5016909;28;20176;-84
2022/03/19 04:54:24;;;;;;;8.83;4.73;;;1.80;99.90;;;;;;5016979;28;20184;-83
2022/03/19 04:56:49;;;;;;;22.00;10.70;;;1.70;99.90;;;;;;5016758;28;20487;-84
2022/03/19 04:59:15;;;;;;;25.43;11.67;;;1.60;99.90;;;;;;5016787;28;20270;-84
2022/03/19 05:01:41;;;;;;;18.53;7.03;;;1.40;99.90;;;;;;5015289;28;20617;-84
2022/03/19 05:04:07;;;;;;;12.20;5.70;;;1.40;99.90;;;;;;5016760;28;20182;-84
2022/03/19 05:06:33;;;;;;;10.07;4.77;;;1.40;99.90;;;;;;5016590;28;20188;-83
2022/03/19 05:11:43;;;;;;;9.37;3.90;;;1.40;99.90;;;;;;5016442;28;20187;-82
2022/03/19 05:14:10;;;;;;;10.67;4.40;;;1.30;99.90;;;;;;5015376;28;20183;-83
2022/03/19 05:16:36;;;;;;;9.23;5.30;;;1.20;99.90;;;;;;5016200;28;20177;-84
2022/03/19 05:19:02;;;;;;;23.13;5.30;;;1.20;99.90;;;;;;5016485;28;20198;-82
2022/03/19 05:21:28;;;;;;;11.47;4.67;;;1.30;99.90;;;;;;5016179;28;20258;-83
2022/03/19 05:23:54;;;;;;;9.97;4.67;;;1.20;99.90;;;;;;5015016;28;20233;-83
2022/03/19 05:26:20;;;;;;;16.60;5.23;;;1.10;99.90;;;;;;5016492;28;20179;-83
2022/03/19 05:28:46;;;;;;;7.57;3.90;;;1.00;99.90;;;;;;5014854;28;20183;-83
2022/03/19 05:31:12;;;;;;;8.60;3.70;;;1.00;99.90;;;;;;5015864;28;20497;-83
2022/03/19 05:36:24;;;;;;;11.47;4.00;;;1.00;99.90;;;;;;5016334;28;20222;-84
2022/03/19 05:38:50;;;;;;;5.63;3.10;;;1.00;99.90;;;;;;5015907;28;20210;-83
2022/03/19 05:41:16;;;;;;;6.50;3.13;;;1.00;99.90;;;;;;5015867;28;20664;-84
2022/03/19 05:43:43;;;;;;;6.03;3.10;;;0.90;99.90;;;;;;5016248;28;20183;-85
2022/03/19 05:46:08;;;;;;;8.03;2.93;;;0.90;99.90;;;;;;5016055;28;20203;-84
2022/03/19 05:48:34;;;;;;;7.80;3.33;;;0.90;99.90;;;;;;5015711;28;20209;-84
2022/03/19 05:51:01;;;;;;;9.63;3.67;;;1.00;99.90;;;;;;5015722;28;20670;-84
2022/03/19 05:53:27;;;;;;;15.63;3.67;;;1.00;99.90;;;;;;5014464;28;20623;-85
2022/03/19 05:55:53;;;;;;;7.63;3.30;;;1.00;99.90;;;;;;5015835;28;20251;-84
2022/03/19 05:58:19;;;;;;;7.67;3.60;;;1.00;99.90;;;;;;5015654;28;20575;-84
2022/03/19 06:00:45;;;;;;;5.80;2.83;;;1.00;99.90;;;;;;5015309;28;20680;-83
2022/03/19 06:03:11;;;;;;;7.10;3.50;;;1.00;99.90;;;;;;5015617;28;20621;-84
2022/03/19 06:05:37;;;;;;;8.43;2.83;;;1.00;99.90;;;;;;5014403;28;20314;-85
2022/03/19 06:08:04;;;;;;;8.87;3.57;;;1.10;99.90;;;;;;5014257;28;20634;-84
2022/03/19 06:10:29;;;;;;;7.80;3.20;;;1.10;99.90;;;;;;5015478;28;20227;-84
2022/03/19 06:12:55;;;;;;;10.47;3.77;;;1.10;99.90;;;;;;5015683;28;20183;-84
2022/03/19 06:15:21;;;;;;;15.93;5.30;;;1.00;99.90;;;;;;5015361;28;20524;-84
2022/03/19 06:17:47;;;;;;;12.00;4.20;;;0.90;99.90;;;;;;5015390;28;20171;-84
2022/03/19 06:20:12;;;;;;;9.17;3.93;;;0.90;99.90;;;;;;5015384;28;20218;-82
2022/03/19 06:22:41;;;;;;;9.13;4.23;;;1.00;99.90;;;;;;5015129;28;20511;-84
2022/03/19 06:25:08;;;;;;;8.57;5.00;;;1.10;99.90;;;;;;5015501;28;20270;-85
2022/03/19 06:27:34;;;;;;;6.30;4.37;;;1.10;99.90;;;;;;5015119;28;20221;-84
2022/03/19 06:29:59;;;;;;;9.60;4.57;;;1.10;99.90;;;;;;5014027;28;20187;-84
2022/03/19 06:32:25;;;;;;;9.60;5.03;;;1.30;99.90;;;;;;5014707;28;20182;-84
2022/03/19 06:34:50;;;;;;;10.83;5.50;;;1.30;99.90;;;;;;5015028;28;20179;-83
2022/03/19 06:37:22;;;;;;;13.87;5.40;;;1.50;99.90;;;;;;5015095;28;20274;-83
2022/03/19 06:39:55;;;;;;;23.10;8.77;;;1.40;99.90;;;;;;5015256;28;20240;-84
2022/03/19 06:42:21;;;;;;;20.00;9.27;;;1.50;99.90;;;;;;5015108;28;20562;-82
2022/03/19 06:44:48;;;;;;;23.20;11.20;;;1.60;99.90;;;;;;5014421;28;20261;-82
2022/03/19 06:47:13;;;;;;;22.87;11.23;;;1.80;99.90;;;;;;5014596;28;20173;-82
2022/03/19 06:49:39;;;;;;;20.20;8.77;;;1.90;99.90;;;;;;5014975;28;20253;-84
2022/03/19 06:52:05;;;;;;;23.07;8.40;;;2.00;99.90;;;;;;5014857;28;20176;-84
2022/03/19 06:54:31;;;;;;;16.20;8.07;;;2.00;99.90;;;;;;5014926;28;20633;-84
2022/03/19 06:56:57;;;;;;;18.60;7.60;;;2.10;99.90;;;;;;5015059;28;20167;-83
2022/03/19 06:59:22;;;;;;;12.00;7.17;;;2.10;99.90;;;;;;5013661;28;20279;-83
2022/03/19 07:01:48;;;;;;;19.43;7.80;;;2.20;99.90;;;;;;5014465;28;20186;-84
2022/03/19 07:04:14;;;;;;;21.10;7.37;;;2.30;99.90;;;;;;5014671;28;20171;-84
2022/03/19 07:06:39;;;;;;;20.17;7.80;;;2.40;99.90;;;;;;5014962;28;20203;-83
2022/03/19 07:09:06;;;;;;;20.20;8.13;;;2.50;99.90;;;;;;5014485;28;20236;-84
2022/03/19 07:11:32;;;;;;;16.03;7.53;;;2.60;99.90;;;;;;5014607;28;20217;-83
2022/03/19 07:13:58;;;;;;;18.63;6.77;;;2.70;99.90;;;;;;5014790;28;20185;-83
2022/03/19 07:16:24;;;;;;;14.33;6.57;;;2.80;99.90;;;;;;5014472;28;20177;-84
2022/03/19 07:18:50;;;;;;;17.30;7.20;;;2.90;99.90;;;;;;5014501;28;20564;-83
2022/03/19 07:21:16;;;;;;;15.77;6.67;;;3.10;99.90;;;;;;5014445;28;20216;-83
2022/03/19 07:23:42;;;;;;;16.67;7.13;;;3.20;99.90;;;;;;5014452;28;20293;-83
2022/03/19 07:26:08;;;;;;;22.97;6.60;;;3.30;99.90;;;;;;5014532;28;20163;-84
2022/03/19 07:28:34;;;;;;;17.77;6.93;;;3.50;99.90;;;;;;5013240;28;20189;-83
2022/03/19 07:31:00;;;;;;;19.13;7.23;;;3.60;99.90;;;;;;5013874;28;20549;-84
2022/03/19 07:33:27;;;;;;;20.33;6.67;;;3.80;99.90;;;;;;5014319;28;20175;-83
2022/03/19 07:35:53;;;;;;;16.27;6.33;;;3.80;99.90;;;;;;5014394;28;20191;-83
2022/03/19 07:38:19;;;;;;;15.50;5.60;;;3.90;99.90;;;;;;5014263;28;20515;-84
2022/03/19 07:43:30;;;;;;;17.80;5.23;;;4.10;99.90;;;;;;5014554;28;20294;-82
2022/03/19 07:45:56;;;;;;;14.90;5.57;;;4.20;99.90;;;;;;5014274;28;20190;-83
2022/03/19 07:48:22;;;;;;;14.90;5.20;;;4.30;99.90;;;;;;5014454;28;20544;-83
2022/03/19 07:50:48;;;;;;;15.33;4.53;;;4.40;99.90;;;;;;5014494;28;20164;-83
2022/03/19 07:53:14;;;;;;;14.20;4.33;;;4.50;99.90;;;;;;5012717;28;20186;-84
2022/03/19 07:55:40;;;;;;;20.77;5.63;;;4.60;99.90;;;;;;5015314;28;20526;-83
2022/03/19 07:58:06;;;;;;;15.60;4.37;;;4.70;99.90;;;;;;5017630;28;20547;-82
2022/03/19 08:00:32;;;;;;;12.23;4.23;;;4.70;99.90;;;;;;5017497;28;20207;-83
2022/03/19 08:02:57;;;;;;;18.03;4.93;;;4.80;99.90;;;;;;5018000;28;20206;-83
2022/03/19 08:05:23;;;;;;;17.33;4.80;;;4.80;99.90;;;;;;5017689;28;20547;-83
2022/03/19 08:07:51;;;;;;;11.87;4.13;;;4.90;99.90;;;;;;5017627;28;20190;-81
2022/03/19 08:10:18;;;;;;;14.07;4.27;;;5.00;99.90;;;;;;5017479;28;20280;-83
2022/03/19 08:12:45;;;;;;;16.00;4.67;;;5.00;99.90;;;;;;5017365;28;20225;-81
2022/03/19 08:15:11;;;;;;;14.43;4.33;;;5.10;99.90;;;;;;5016009;28;20183;-83
2022/03/19 08:17:38;;;;;;;11.07;4.60;;;5.10;99.90;;;;;;5017489;28;20664;-83
2022/03/19 08:20:08;;;;;;;10.10;3.53;;;5.20;99.90;;;;;;5015914;28;20211;-83
2022/03/19 08:22:35;;;;;;;14.77;4.80;;;5.30;99.90;;;;;;5017393;28;20168;-83
2022/03/19 08:25:01;;;;;;;13.13;3.97;;;5.30;99.90;;;;;;5017155;28;20175;-83
2022/03/19 08:27:27;;;;;;;14.23;4.07;;;5.40;99.90;;;;;;5017132;28;20258;-83
2022/03/19 08:29:53;;;;;;;17.70;4.73;;;5.40;99.90;;;;;;5017150;28;20265;-82
2022/03/19 08:32:20;;;;;;;13.97;4.10;;;5.50;99.90;;;;;;5017455;28;20516;-83
2022/03/19 08:34:46;;;;;;;14.17;3.97;;;5.60;99.90;;;;;;5017124;28;20179;-83
2022/03/19 08:37:15;;;;;;;12.57;3.70;;;5.60;99.90;;;;;;5017270;28;20164;-83
2022/03/19 08:42:24;;;;;;;12.37;3.47;;;5.80;99.90;;;;;;5017238;28;20625;-84
2022/03/19 08:44:51;;;;;;;18.73;3.93;;;5.90;99.90;;;;;;5016863;28;20194;-84
2022/03/19 08:47:17;;;;;;;15.50;3.73;;;6.00;99.90;;;;;;5017259;28;20190;-83
2022/03/19 08:49:43;;;;;;;11.10;3.33;;;6.10;99.90;;;;;;5017099;28;20234;-84
2022/03/19 08:52:08;;;;;;;13.60;3.93;;;6.20;99.90;;;;;;5016720;28;20187;-81
2022/03/19 08:54:34;;;;;;;9.00;3.43;;;6.20;99.90;;;;;;5016859;28;20572;-81
2022/03/19 08:57:00;;;;;;;12.23;3.57;;;6.30;99.90;;;;;;5016749;28;20171;-84
2022/03/19 08:59:26;;;;;;;10.00;3.60;;;6.40;99.90;;;;;;5016603;28;20175;-83
2022/03/19 09:01:53;;;;;;;11.77;3.77;;;6.40;99.90;;;;;;5016303;28;20179;-81
2022/03/19 09:04:19;;;;;;;10.23;3.10;;;6.40;99.90;;;;;;5016945;28;20214;-82
2022/03/19 09:06:45;;;;;;;13.00;3.37;;;6.50;99.90;;;;;;5015958;28;20175;-83
2022/03/19 09:09:14;;;;;;;11.17;2.63;;;6.60;99.90;;;;;;5016064;28;20219;-82
2022/03/19 09:11:40;;;;;;;12.43;2.93;;;6.60;99.90;;;;;;5016347;28;20187;-84
2022/03/19 09:14:07;;;;;;;13.77;2.93;;;6.70;99.90;;;;;;5016662;28;20603;-84
2022/03/19 09:16:34;;;;;;;11.47;3.17;;;6.90;99.90;;;;;;5014898;28;20196;-83
2022/03/19 09:19:00;;;;;;;13.23;3.03;;;7.00;99.90;;;;;;5016229;28;20171;-83
2022/03/19 09:21:29;;;;;;;11.30;3.17;;;7.10;99.90;;;;;;5016081;28;20292;-84
2022/03/19 09:23:55;;;;;;;13.07;3.10;;;7.10;99.90;;;;;;5016246;28;20171;-83
2022/03/19 09:26:21;;;;;;;10.97;2.93;;;7.10;99.90;;;;;;5016279;28;20183;-84
2022/03/19 09:28:47;;;;;;;14.83;2.90;;;7.10;99.90;;;;;;5016419;28;20167;-83
2022/03/19 09:31:17;;;;;;;12.17;2.83;;;7.20;99.90;;;;;;5015619;28;20672;-83
2022/03/19 09:33:47;;;;;;;12.57;3.00;;;7.40;99.90;;;;;;5015949;28;20203;-82
2022/03/19 09:36:13;;;;;;;11.70;3.20;;;7.50;99.90;;;;;;5015961;28;20203;-82
2022/03/19 09:38:42;;;;;;;11.30;3.03;;;7.40;99.90;;;;;;5014612;28;20175;-82
2022/03/19 09:41:09;;;;;;;8.80;3.03;;;7.40;99.90;;;;;;5015785;28;20257;-81
2022/03/19 09:43:35;;;;;;;7.67;2.50;;;7.50;99.90;;;;;;5015772;28;20203;-81
2022/03/19 09:46:03;;;;;;;11.13;3.17;;;7.60;99.90;;;;;;5015441;28;20490;-83
2022/03/19 09:48:29;;;;;;;14.30;3.23;;;7.70;99.90;;;;;;5014284;28;20603;-84
2022/03/19 09:50:55;;;;;;;14.83;3.20;;;7.80;99.90;;;;;;5014524;28;20176;-83
2022/03/19 09:53:25;;;;;;;8.60;2.77;;;7.90;99.90;;;;;;5015632;28;20571;-83
2022/03/19 09:55:56;;;;;;;10.80;2.97;;;8.00;99.90;;;;;;5015802;28;20179;-84
2022/03/19 09:58:22;;;;;;;9.67;2.67;;;8.00;99.90;;;;;;5015557;28;20163;-81
2022/03/19 10:00:48;;;;;;;11.80;2.90;;;8.20;99.90;;;;;;5015100;28;20199;-82
2022/03/19 10:03:14;;;;;;;10.40;2.70;;;8.20;99.90;;;;;;5015406;28;20228;-83
2022/03/19 10:08:35;;;;;;;8.27;2.83;;;8.30;99.90;;;;;;5015852;28;20182;-83
2022/03/19 10:11:05;;;;;;;11.87;2.80;;;8.30;99.90;;;;;;5015393;28;20174;-83
2022/03/19 10:13:31;;;;;;;11.40;2.60;;;8.40;99.90;;;;;;5015017;28;20179;-83
2022/03/19 10:15:57;;;;;;;13.40;2.97;;;8.50;99.90;;;;;;5014979;28;20175;-84
2022/03/19 10:18:30;;;;;;;10.57;2.17;;;8.50;99.90;;;;;;5015406;28;20586;-84
2022/03/19 10:21:00;;;;;;;11.57;3.30;;;8.60;99.90;;;;;;5015200;28;20225;-83
2022/03/19 10:23:42;;;;;;;6.30;2.10;;;8.50;99.90;;;;;;5015361;28;20164;-83
2022/03/19 10:26:29;;;;;;;10.93;2.90;;;8.60;99.90;;;;;;5015321;28;20524;-84
2022/03/19 10:29:06;;;;;;;10.33;3.20;;;8.90;99.90;;;;;;5014585;28;20191;-83
2022/03/19 10:31:38;;;;;;;12.57;3.20;;;8.80;99.90;;;;;;5014722;28;20186;-83
2022/03/19 10:34:05;;;;;;;11.80;2.80;;;8.90;99.90;;;;;;5014998;28;20614;-83
2022/03/19 10:36:37;;;;;;;12.97;2.77;;;8.90;99.90;;;;;;5014844;28;20182;-82
2022/03/19 10:39:26;;;;;;;7.33;2.30;;;8.90;99.90;;;;;;5015190;28;20167;-83
2022/03/19 10:41:54;;;;;;;10.93;2.60;;;9.10;99.90;;;;;;5014869;28;20171;-82
2022/03/19 10:44:24;;;;;;;7.00;2.33;;;9.20;99.90;;;;;;5015011;28;20168;-83
2022/03/19 10:46:54;;;;;;;6.23;2.27;;;9.30;99.90;;;;;;5013163;28;20175;-84
2022/03/19 10:49:23;;;;;;;12.07;2.70;;;9.50;99.90;;;;;;5014781;28;20166;-83
2022/03/19 10:51:51;;;;;;;8.37;2.23;;;9.50;99.90;;;;;;5014993;28;20237;-82
2022/03/19 10:54:17;;;;;;;12.30;2.80;;;9.50;99.90;;;;;;5013581;28;20270;-84
2022/03/19 10:56:45;;;;;;;8.03;2.87;;;9.60;99.90;;;;;;5014627;28;20179;-83
2022/03/19 10:59:11;;;;;;;6.40;2.10;;;9.60;99.90;;;;;;5013434;28;20171;-84
2022/03/19 11:01:37;;;;;;;11.13;3.40;;;9.70;99.90;;;;;;5014273;28;20275;-83
2022/03/19 11:04:05;;;;;;;6.33;2.20;;;9.80;99.90;;;;;;5013391;28;20662;-84
2022/03/19 11:06:40;;;;;;;9.60;2.30;;;9.80;99.90;;;;;;5013376;28;20239;-83
2022/03/19 11:09:10;;;;;;;6.93;2.30;;;9.80;99.90;;;;;;5014308;28;20218;-83
2022/03/19 11:11:44;;;;;;;7.93;2.10;;;9.90;99.90;;;;;;5014429;28;20266;-83
2022/03/19 11:14:13;;;;;;;5.83;2.30;;;10.00;99.90;;;;;;5013329;28;20178;-84
2022/03/19 11:16:41;;;;;;;8.67;2.70;;;10.20;99.90;;;;;;5014268;28;20168;-83
2022/03/19 11:19:08;;;;;;;9.87;2.20;;;10.20;99.90;;;;;;5014434;28;20221;-83
2022/03/19 11:21:34;;;;;;;10.03;1.87;;;9.90;99.90;;;;;;5014464;28;20230;-84
2022/03/19 11:24:08;;;;;;;4.40;1.70;;;9.90;99.90;;;;;;5029812;28;20186;-82
2022/03/19 11:26:35;;;;;;;7.77;2.07;;;9.90;99.90;;;;;;5034215;28;20586;-83
2022/03/19 11:29:01;;;;;;;6.93;1.90;;;10.00;99.90;;;;;;5034139;28;20208;-84
2022/03/19 11:31:29;;;;;;;5.70;2.13;;;10.30;99.90;;;;;;5017985;28;20557;-84
2022/03/19 11:34:12;;;;;;;7.50;2.23;;;10.50;99.90;;;;;;5018816;28;20186;-83
2022/03/19 11:36:54;;;;;;;7.23;2.00;;;10.70;99.90;;;;;;5017661;28;20520;-83
2022/03/19 11:39:20;;;;;;;5.13;1.37;;;10.70;99.90;;;;;;5018185;28;20170;-84
2022/03/19 11:41:50;;;;;;;5.40;1.20;;;10.50;99.90;;;;;;5018227;28;20175;-84
2022/03/19 11:44:17;;;;;;;4.97;1.30;;;10.50;99.90;;;;;;5017004;28;20202;-82
2022/03/19 11:47:09;;;;;;;6.43;1.58;;;10.50;97.90;;;;;;5016495;28;20274;-84
2022/03/19 11:49:49;;;;;;;6.72;1.45;;;10.60;98.90;;;;;;5013209;28;20191;-83
2022/03/19 11:52:24;;;;;;;5.55;1.20;;;10.60;98.40;;;;;;5017731;28;20171;-82
2022/03/19 11:55:03;;;;;;;7.20;1.50;;;10.50;98.00;;;;;;5017822;28;20175;-84
2022/03/19 11:57:49;;;;;;;7.50;1.90;;;10.30;99.90;;;;;;5017628;28;20167;-83
2022/03/19 12:00:20;;;;;;;4.70;1.30;;;10.30;99.90;;;;;;5017547;28;20223;-84
2022/03/19 12:03:09;;;;;;;7.13;1.60;;;10.10;99.90;;;;;;5017771;28;20178;-83
2022/03/19 12:05:41;;;;;;;4.00;1.10;;;10.00;99.90;;;;;;5016215;28;20471;-84
2022/03/19 12:08:18;;;;;;;5.90;1.87;;;10.00;99.90;;;;;;5017543;28;20175;-82
2022/03/19 12:11:00;;;;;;;4.93;1.53;;;10.30;99.90;;;;;;5017561;28;20222;-83
2022/03/19 12:13:26;;;;;;;6.50;1.57;;;10.60;99.90;;;;;;5017658;28;20183;-83
2022/03/19 12:15:59;;;;;;;4.53;1.33;;;10.90;97.00;;;;;;5017345;28;20573;-83
2022/03/19 12:18:29;;;;;;;4.20;1.00;;;11.00;96.70;;;;;;5017556;28;20179;-83
2022/03/19 12:21:00;;;;;;;6.38;1.30;;;11.00;96.80;;;;;;5017515;28;20301;-82
2022/03/19 12:23:29;;;;;;;4.07;1.27;;;11.10;95.70;;;;;;5017384;28;20167;-82
2022/03/19 12:26:03;;;;;;;6.22;1.45;;;11.30;97.50;;;;;;5015968;28;20527;-83
2022/03/19 12:28:29;;;;;;;10.60;1.88;;;11.50;97.00;;;;;;5017144;28;20174;-82
2022/03/19 12:31:05;;;;;;;4.85;1.33;;;11.70;96.50;;;;;;5016910;28;20179;-84
2022/03/19 12:33:32;;;;;;;4.50;0.88;;;11.90;95.00;;;;;;5015949;28;20588;-83
2022/03/19 12:35:58;;;;;;;4.30;1.20;;;11.40;95.00;;;;;;5017323;28;20179;-83
2022/03/19 12:38:32;;;;;;;2.20;0.83;;;11.10;96.30;;;;;;5017011;28;20176;-84
2022/03/19 12:43:43;;;;;;;3.67;1.15;;;11.00;96.10;;;;;;5016267;28;20174;-82
2022/03/19 12:46:09;;;;;;;4.78;1.33;;;11.20;96.70;;;;;;5016692;28;20594;-82
2022/03/19 12:48:39;;;;;;;4.95;1.00;;;11.20;95.70;;;;;;5016888;28;20171;-82
2022/03/19 12:51:05;;;;;;;3.33;1.00;;;11.10;95.70;;;;;;5017080;28;20160;-82
2022/03/19 12:53:39;;;;;;;5.32;1.00;;;10.90;94.90;;;;;;5016660;28;20262;-82
2022/03/19 12:56:13;;;;;;;4.47;1.15;;;10.80;95.10;;;;;;5016584;28;20267;-83
2022/03/19 12:58:42;;;;;;;3.17;1.30;;;10.70;95.70;;;;;;5016639;28;20213;-82
2022/03/19 13:01:13;;;;;;;7.30;1.80;;;10.60;96.80;;;;;;5014524;28;20590;-83
2022/03/19 13:03:41;;;;;;;4.40;1.40;;;10.60;96.80;;;;;;5016648;28;20164;-82
2022/03/19 13:06:08;;;;;;;3.47;1.07;;;10.50;96.00;;;;;;5016442;28;20673;-82
2022/03/19 13:08:47;;;;;;;2.22;0.77;;;10.60;95.50;;;;;;5016521;28;20179;-82